• Join FlightAware (Why Join?)
  • Login
  • US Flag 
03:08PM EDT


 

Airport Tracker/Info


-or-


 

Live Flight TrackerFlight Track Log ✈ OPT702 ✈ 09-May-2013 ✈ KTEB - KMDW

Flight Track Log - Related Links

Times and Time Zones

All times are in EDT time to prevent confusion due to time zone crossing. See the OPT702 flight status page for this flight to view local times or setup timezone preferences in your user account.

Time Position Orientation Groundspeed Altitude Reporting Facility
EDT Latitude Longitude Course Direction KTS MPH feet Rate Location/Type
02:54PM 40.8833 -74.0500 311° West 195 224 2,300  Level New York TRACON
02:55PM 40.9167 -74.1000 311° West 218 251 4,100 1,800 Climbing New York TRACON
02:56PM 40.9167 -74.2000 270° West 261 300 6,000 2,580 Climbing New York TRACON
02:57PM 40.9167 -74.3000 270° West 273 314 9,300 2,880 Climbing New York TRACON
02:58PM 40.9167 -74.4000 270° West 303 349 11,800 2,280 Climbing New York TRACON
02:58PM 40.9256 -74.4375 287° West 307 353 12,200 2,160 Climbing New York Center
02:59PM 40.9242 -74.5472 269° West 330 380 14,600 2,040 Climbing New York Center
03:00PM 40.9219 -74.6761 269° West 340 391 16,300 1,200 Climbing New York Center
03:01PM 40.9217 -74.8081 270° West 353 406 17,000 540 Climbing New York Center
03:02PM 40.9197 -74.9258 269° West 363 418 17,400 1,380 Climbing New York Center
03:03PM 40.9186 -75.0742 269° West 363 418 19,800 2,280 Climbing New York Center
03:04PM 40.9094 -75.2108 265° West 370 426 22,000 2,160 Climbing New York Center
03:05PM 40.8794 -75.3433 253° West 395 455 24,200 2,220 Climbing New York Center
03:06PM 40.8467 -75.4867 253° West 401 461 26,500 2,280 Climbing New York Center
03:07PM 40.8114 -75.6350 253° West 414 476 28,800 2,280 Climbing New York Center
03:08PM 40.7944 -75.7928 262° West 427 491 31,100 2,280 Climbing New York Center
03:09PM 40.8039 -75.9578 274° West 427 491 33,400 2,040 Climbing New York Center
03:10PM 40.8114 -76.1175 274° West 422 486 35,100 1,620 Climbing New York Center
03:11PM 40.8225 -76.2831 275° West 434 499 36,600 1,320 Climbing New York Center
03:12PM 40.8317 -76.4456 274° West 448 516 37,800 1,140 Climbing New York Center
03:13PM 40.8461 -76.6169 276° West 458 527 38,900 1,080 Climbing New York Center
03:14PM 40.8522 -76.7875 273° West 469 540 40,000 1,080 Climbing New York Center
03:15PM 40.8625 -76.9531 275° West 469 540 41,100 1,080 Climbing New York Center
03:16PM 40.8725 -77.1186 275° West 463 533 42,200 540 Climbing New York Center
03:19PM 40.8933 -77.5203 274° West 462 532 43,000 180 Climbing Cleveland Center
03:20PM 40.9044 -77.7067 275° West 462 532 43,000  Level Cleveland Center
03:21PM 40.9103 -77.8575 273° West 462 532 43,000  Level Cleveland Center
03:22PM 40.9228 -78.0383 275° West 462 532 43,000  Level Cleveland Center
03:23PM 40.9450 -78.1997 280° West 457 526 43,000  Level Cleveland Center
03:24PM 40.9628 -78.3614 278° West 452 520 43,000  Level Cleveland Center
03:25PM 40.9803 -78.5203 278° West 452 520 43,000  Level Cleveland Center
03:26PM 41.0019 -78.6819 280° West 452 520 43,000  Level Cleveland Center
03:27PM 41.0214 -78.8464 279° West 447 514 43,000  Level Cleveland Center
03:28PM 41.0403 -79.0111 279° West 447 514 43,000  Level Cleveland Center
03:29PM 41.0569 -79.1706 278° West 447 514 43,000  Level Cleveland Center
03:30PM 41.0778 -79.3381 279° West 447 514 43,000  Level Cleveland Center
03:31PM 41.0961 -79.5058 278° West 452 520 43,000  Level Cleveland Center
03:32PM 41.1142 -79.6764 278° West 458 527 43,000  Level Cleveland Center
03:33PM 41.1322 -79.8469 278° West 464 534 43,000  Level Cleveland Center
03:34PM 41.1519 -80.0206 279° West 469 540 43,000  Level Cleveland Center
03:35PM 41.1692 -80.1914 278° West 469 540 43,000  Level Cleveland Center
03:36PM 41.1842 -80.3458 277° West 469 540 43,000  Level Cleveland Center
03:37PM 41.2011 -80.5197 277° West 476 548 43,000  Level Cleveland Center
03:38PM 41.2200 -80.7072 278° West 476 548 43,000  Level Cleveland Center
03:39PM 41.2383 -80.8814 278° West 481 554 43,000  Level Cleveland Center
03:40PM 41.2544 -81.0528 277° West 481 554 43,000  Level Cleveland Center
03:41PM 41.2703 -81.2242 277° West 481 554 43,000  Level Cleveland Center
03:42PM 41.2881 -81.3928 278° West 481 554 43,000  Level Cleveland Center
03:43PM 41.3056 -81.5478 279° West 476 548 43,000  Level Cleveland Center
03:44PM 41.3206 -81.7194 277° West 476 548 43,000  Level Cleveland Center
03:45PM 41.3356 -81.8911 277° West 476 548 43,000  Level Cleveland Center
03:46PM 41.3519 -82.0658 277° West 476 548 43,000  Level Cleveland Center
03:47PM 41.3619 -82.2569 274° West 481 554 43,000  Level Cleveland Center
03:48PM 41.3717 -82.4369 274° West 481 554 43,000  Level Cleveland Center
03:49PM 41.3814 -82.6089 274° West 481 554 43,000  Level Cleveland Center
03:50PM 41.3906 -82.7864 274° West 481 554 43,000  Level Cleveland Center
03:51PM 41.4017 -82.9611 275° West 476 548 43,000  Level Cleveland Center
03:52PM 41.4103 -83.1358 274° West 476 548 43,000  Level Cleveland Center
03:53PM 41.4172 -83.2886 274° West 476 548 43,000  Level Cleveland Center
03:54PM 41.4256 -83.4633 274° West 481 554 43,000  Level Cleveland Center
03:55PM 41.4428 -83.7608 275° West 473 544 43,000  Level Chicago Center
03:56PM 41.4431 -83.8158 270° West 481 554 43,000  Level Cleveland Center
03:57PM 41.4506 -83.9881 273° West 476 548 43,000 -1,140 Level Cleveland Center
03:58PM 41.4656 -84.2778 274° West 458 527 40,000 -2,640 Descending Chicago Center
03:59PM 41.4722 -84.4347 273° West 427 491 35,900 -4,140 Descending Chicago Center
04:00PM 41.4778 -84.5919 273° West 423 487 31,500 -2,820 Descending Chicago Center
04:01PM 41.4853 -84.7886 273° West 441 507 30,100 -780 Descending Chicago Center
04:03PM 41.4914 -84.9517 273° West 441 507 30,000 -780 Descending Chicago Center
04:04PM 41.4978 -85.1097 273° West 428 493 28,500 -1,740 Descending Chicago Center
04:05PM 41.5019 -85.2728 272° West 434 499 26,500 -2,040 Descending Chicago Center
04:06PM 41.5064 -85.4397 272° West 438 504 24,400 -1,980 Descending Chicago Center
04:07PM 41.5125 -85.5997 273° West 425 489 22,400 -2,100 Descending Chicago Center
04:08PM 41.5172 -85.7564 272° West 421 484 20,100 -2,400 Descending Chicago Center
04:09PM 41.5211 -85.9083 272° West 411 473 17,500 -2,280 Descending Chicago Center
04:10PM 41.5239 -86.0658 271° West 357 411 15,400 -1,860 Descending Chicago Center
04:11PM 41.5233 -86.1858 270° West 330 380 13,700 -1,620 Descending Chicago Center
04:12PM 41.5231 -86.3061 270° West 325 374 12,100 -1,380 Descending Chicago Center
04:13PM 41.5219 -86.4225 269° West 318 366 10,900 -1,020 Descending Chicago Center
04:14PM 41.5211 -86.5397 269° West 318 366 10,100 -480 Descending Chicago Center
04:15PM 41.5214 -86.6553 270° West 315 362 10,000 -540 Descending Chicago Center
04:16PM 41.5206 -86.7622 269° West 243 280 9,100 -1,320 Descending Chicago Center
04:17PM 41.5192 -86.8467 269° West 233 268 7,300 -1,500 Descending Chicago Center
04:18PM 41.5172 -86.9294 268° West 228 262 6,100 -660 Descending Chicago Center
04:19PM 41.5178 -87.0103 271° West 224 258 6,000 -60 Descending Chicago Center
04:20PM 41.5183 -87.0939 271° West 224 258 6,000  Level Chicago Center
04:21PM 41.5122 -87.1875 265° West 212 244 6,000  Level Chicago Center
04:22PM 41.5000 -87.2500 255° West 182 209 6,000  Level Chicago TRACON
04:23PM 41.4833 -87.3167 252° West 167 192 6,000  Level Chicago TRACON
04:24PM 41.4833 -87.3667 270° West 197 227 6,000 -240 Level Chicago TRACON
04:25PM 41.5294 -87.3936 336° Northwest 197 227 5,500 -480 Descending Chicago Center
04:26PM 41.5736 -87.4525 315° West 191 220 5,000 -300 Descending Chicago Center
04:27PM 41.6075 -87.5044 311° West 187 215 5,000 -180 Level Chicago Center
04:28PM 41.6442 -87.5558 314° West 190 219 4,700 -780 Descending Chicago Center
04:29PM 41.6803 -87.6044 315° West 189 217 3,500 -1,080 Descending Chicago Center
04:30PM 41.7153 -87.6556 313° West 188 216 2,500 -900 Descending Chicago Center
04:31PM 41.7500 -87.7000 316° Northwest 150 173 1,800 -420 Descending Chicago TRACON
04:32PM 41.7833 -87.6833 20° North 164 189 1,800 -420 Level Chicago TRACON
04:33PM 41.8000 -87.7333 294° West 125 144 1,000 -780 Descending Chicago TRACON